Nearby METAR Reports

 

KCOS - Colorado Springs, Colorado, USA
Distance from station: S 6mi, 9km
Updated: Fri, 26-May-2017 4:54am MDT
Mostly cloudy
Mostly cloudy
 Wind from N
Wind: N 5 mph , 7 km/h
Temperature: 46°F , 8°C
Wind Chill: 44°F , 7°C
Dew Point: 43°F , 6°C
Humidity: 87%
Barometer: 30.00 inHg , 1015.9 hPa
Clouds: Mostly cloudy
Visibility: 10 miles , 16 km
Cloud details: Few Clouds 1000 ft
Few Clouds 11000 ft
Partly cloudy 18000 ft
Mostly cloudy 22000 ft
2017/05/26 10:54 KCOS 261054Z 01004KT 10SM FEW010 FEW110 SCT180 BKN220 08/06 A3000 RMK AO2 SLP103 T00780061
KAFF - Usaf Academy/Cos, Colorado, USA
Distance from station: NW 7mi, 12km
Updated: Fri, 26-May-2017 4:58am MDT
Few Clouds
Few Clouds
 Wind from NNW
Wind: NNW 7 mph , 11 km/h
Temperature: 43°F , 6°C
Wind Chill: 39°F , 4°C
Dew Point: 41°F , 5°C
Humidity: 93%
Barometer: 30.00 inHg , 1015.9 hPa
Clouds: Few Clouds
Visibility: 10 miles , 16 km
Cloud details: Few Clouds 2400 ft
2017/05/26 10:58 KAFF 261058Z AUTO 34006KT 10SM FEW024 06/05 A3000 RMK AO2 SLP106 T00550048
 
KFLY - Co Spngs Meadow, Colorado, USA
Distance from station: ENE 8mi, 13km
Updated: Fri, 26-May-2017 4:55am MDT
Partly cloudy
Partly cloudy
 Wind from NW
Wind: NW 5 mph , 7 km/h
Temperature: 43°F , 6°C
Wind Chill: 40°F , 4°C
Dew Point: 41°F , 5°C
Humidity: 93%
Barometer: 30.02 inHg , 1016.6 hPa
Clouds: Partly cloudy
Visibility: 10 miles , 16 km
Cloud details: Partly cloudy 10000 ft
2017/05/26 10:55 KFLY 261055Z AUTO 32004KT 10SM SCT100 06/05 A3002 RMK AO2 T00620045
KFCS - Fort Carson, Colorado, USA
Distance from station: S 17mi, 27km
Updated: Fri, 26-May-2017 4:58am MDT
Clear
Clear
 Wind from NW
Wind: NW 6 mph , 9 km/h
Temperature: 46°F , 8°C
Wind Chill: 43°F , 6°C
Dew Point: 45°F , 7°C
Humidity: 93%
Barometer: 29.97 inHg , 1014.9 hPa
Clouds: Clear
Visibility: 10 miles , 16 km
2017/05/26 10:58 KFCS 261058Z AUTO 32005KT 10SM CLR 08/07 A2997 RMK AO2 SLP111 T00780066
 
KMNH - Monument/Elbert, Colorado, USA
Distance from station: N 22mi, 35km
Updated: Fri, 26-May-2017 4:53am MDT
Mostly cloudy
Mostly cloudy
 Wind from S
Wind: S 6 mph , 9 km/h
Temperature: 39°F , 4°C
Wind Chill: 35°F , 2°C
Dew Point: 37°F , 3°C
Humidity: 93%
Barometer: 30.03 inHg , 1016.9 hPa
Clouds: Mostly cloudy
Visibility: 10 miles , 16 km
Cloud details: Mostly cloudy 11000 ft
2017/05/26 10:53 KMNH 261053Z AUTO 19005KT 10SM BKN110 04/03 A3003 RMK AO2
K1V6 - Canon City, Colorado, USA
Distance from station: SSW 39mi, 62km
Updated: Tue, 16-May-2017 7:35am MDT
NOT Current
Clear
Clear
 Wind from W
Wind: W 3 mph , 6 km/h
Temperature: 63°F , 17°C
Dew Point: 28°F , -2°C
Humidity: 27%
Barometer: 29.76 inHg , 1007.8 hPa
Clouds: Clear
Visibility: 10 miles , 16 km
2017/05/16 13:35 K1V6 161335Z AUTO 26003KT 10SM CLR 17/M02 A2976 RMK AO2
 
KPUB - Pueblo, Colorado, USA
Distance from station: SSE 44mi, 71km
Updated: Fri, 26-May-2017 4:53am MDT
Clear
Clear
 Wind from WSW
Wind: WSW 7 mph , 11 km/h
Temperature: 52°F , 11°C
Dew Point: 45°F , 7°C
Humidity: 77%
Barometer: 29.96 inHg , 1014.6 hPa
Clouds: Clear
Visibility: 10 miles , 16 km
2017/05/26 10:53 KPUB 261053Z AUTO 24006KT 10SM CLR 11/07 A2996 RMK AO2 SLP086 T01060072
KAPA - Denver/Arapahoe, Colorado, USA
Distance from station: N 47mi, 75km
Updated: Fri, 26-May-2017 4:53am MDT
Clear
Clear
 Wind from S
Wind: S 3 mph , 6 km/h
Temperature: 45°F , 7°C
Dew Point: 43°F , 6°C
Humidity: 93%
Barometer: 29.98 inHg , 1015.2 hPa
Clouds: Clear
Visibility: 10 miles , 16 km
2017/05/26 10:53 KAPA 261053Z 17003KT 10SM CLR 07/06 A2998 RMK AO2 SLP115 T00720061 $